Terminal Aerodrome Forecast
Issued by NWS Wilmington, OH

Current Version | Previous Version | Graphics & Text | Print | Product List | Glossary On
Versions: 1 2 3 4 5 6 7 8 9 10 11 12 13 14 15 16 17 18
000
FTUS41 KILN 220500
TAFCMH
TAF
KCMH 220534Z 2206/2306 10004KT P6SM SCT250
     FM221400 13007KT P6SM SCT015 BKN040
     FM221800 12007KT P6SM SCT040 BKN150
     FM230500 12007KT P6SM VCSH SCT015 BKN040=

USA.gov is the U.S. government's official web portal to all federal, state and local government web resources and services.